Weather at Campo di Volo Avio Pontina Fly

Public forecast

Using degrees Celsius for public forecast. Weather courtesy of forecast.io.

Closest aviation weather report (METAR) to Campo di Volo Avio Pontina Fly

Report is more than 6 hours old.

Closest report is Latina Air Base, 15.6 nm (28.9 km) NW.

2024/07/19 17:55 (retrieved 2 days ago)

LIRL 191755Z /////KT CAVOK 32/20 Q1012 RMK SKC MON LIB NC VIS MIN 9999 WIND THR12 /////KT WIND THR30 23004KT BLU

Closest aviation forecast (TAF) to Campo di Volo Avio Pontina Fly

Closest forecast is Ciampino–G. B. Pastine International Airport, 36.4 nm (67.4 km) NW.

2024/07/21 12:00 (retrieved 2 hours ago)

TAF LIRA 211100Z 2112/2212 21010KT CAVOK BECMG 2116/2118 VRB05KT TEMPO 2210/2212 SHRA